sensor_id;sensor_type;location;lat;lon;timestamp;P1;durP1;ratioP1;P2;durP2;ratioP2
20846;SDS011;10584;50.854;12.902;2022-09-13T00:02:21;15.53;;;9.20;;
20846;SDS011;10584;50.854;12.902;2022-09-13T00:07:24;15.63;;;10.07;;
20846;SDS011;10584;50.854;12.902;2022-09-13T00:12:28;13.60;;;9.73;;
20846;SDS011;10584;50.854;12.902;2022-09-13T00:17:31;17.83;;;9.23;;
20846;SDS011;10584;50.854;12.902;2022-09-13T00:22:34;14.97;;;9.43;;
20846;SDS011;10584;50.854;12.902;2022-09-13T00:27:37;17.10;;;9.67;;
20846;SDS011;10584;50.854;12.902;2022-09-13T00:32:41;12.90;;;9.57;;
20846;SDS011;10584;50.854;12.902;2022-09-13T00:37:44;14.47;;;9.63;;
20846;SDS011;10584;50.854;12.902;2022-09-13T00:42:47;15.93;;;10.27;;
20846;SDS011;10584;50.854;12.902;2022-09-13T00:58:15;14.77;;;10.07;;
20846;SDS011;10584;50.854;12.902;2022-09-13T01:03:23;17.87;;;9.73;;
20846;SDS011;10584;50.854;12.902;2022-09-13T01:08:29;15.57;;;10.00;;
20846;SDS011;10584;50.854;12.902;2022-09-13T01:13:35;16.70;;;10.40;;
20846;SDS011;10584;50.854;12.902;2022-09-13T01:18:39;17.87;;;10.60;;
20846;SDS011;10584;50.854;12.902;2022-09-13T01:24:05;16.60;;;10.40;;
20846;SDS011;10584;50.854;12.902;2022-09-13T02:02:07;14.80;;;9.30;;
20846;SDS011;10584;50.854;12.902;2022-09-13T02:07:27;14.63;;;8.73;;
20846;SDS011;10584;50.854;12.902;2022-09-13T02:12:35;13.20;;;8.73;;
20846;SDS011;10584;50.854;12.902;2022-09-13T02:17:55;19.00;;;9.03;;
20846;SDS011;10584;50.854;12.902;2022-09-13T02:23:17;14.87;;;8.40;;
20846;SDS011;10584;50.854;12.902;2022-09-13T02:28:34;15.27;;;8.80;;
20846;SDS011;10584;50.854;12.902;2022-09-13T02:33:48;13.20;;;8.30;;
20846;SDS011;10584;50.854;12.902;2022-09-13T02:39:13;13.67;;;8.27;;
20846;SDS011;10584;50.854;12.902;2022-09-13T02:44:22;12.93;;;8.70;;
20846;SDS011;10584;50.854;12.902;2022-09-13T02:55:05;18.10;;;8.60;;
20846;SDS011;10584;50.854;12.902;2022-09-13T03:00:15;16.70;;;9.17;;
20846;SDS011;10584;50.854;12.902;2022-09-13T03:05:18;13.83;;;8.90;;
20846;SDS011;10584;50.854;12.902;2022-09-13T03:10:21;15.03;;;8.67;;
20846;SDS011;10584;50.854;12.902;2022-09-13T03:15:44;16.20;;;9.07;;
20846;SDS011;10584;50.854;12.902;2022-09-13T03:20:55;14.80;;;8.47;;
20846;SDS011;10584;50.854;12.902;2022-09-13T03:26:16;14.30;;;8.70;;
20846;SDS011;10584;50.854;12.902;2022-09-13T03:36:51;17.90;;;8.13;;
20846;SDS011;10584;50.854;12.902;2022-09-13T03:42:15;13.97;;;8.27;;
20846;SDS011;10584;50.854;12.902;2022-09-13T03:47:25;15.40;;;8.20;;
20846;SDS011;10584;50.854;12.902;2022-09-13T03:52:33;12.13;;;8.23;;
20846;SDS011;10584;50.854;12.902;2022-09-13T03:57:37;13.77;;;8.03;;
20846;SDS011;10584;50.854;12.902;2022-09-13T04:02:40;11.60;;;7.60;;
20846;SDS011;10584;50.854;12.902;2022-09-13T04:07:43;11.73;;;7.40;;
20846;SDS011;10584;50.854;12.902;2022-09-13T04:12:46;12.33;;;7.60;;
20846;SDS011;10584;50.854;12.902;2022-09-13T04:17:50;11.37;;;7.57;;
20846;SDS011;10584;50.854;12.902;2022-09-13T04:22:53;13.27;;;7.87;;
20846;SDS011;10584;50.854;12.902;2022-09-13T04:27:58;15.77;;;8.10;;
20846;SDS011;10584;50.854;12.902;2022-09-13T04:33:01;12.47;;;8.53;;
20846;SDS011;10584;50.854;12.902;2022-09-13T04:38:04;13.17;;;8.17;;
20846;SDS011;10584;50.854;12.902;2022-09-13T04:43:07;16.80;;;8.53;;
20846;SDS011;10584;50.854;12.902;2022-09-13T04:48:10;16.73;;;9.73;;
20846;SDS011;10584;50.854;12.902;2022-09-13T04:53:13;15.90;;;9.07;;
20846;SDS011;10584;50.854;12.902;2022-09-13T04:58:16;16.63;;;9.20;;
20846;SDS011;10584;50.854;12.902;2022-09-13T05:03:19;17.10;;;9.33;;
20846;SDS011;10584;50.854;12.902;2022-09-13T05:08:22;17.23;;;10.37;;
20846;SDS011;10584;50.854;12.902;2022-09-13T05:13:25;17.23;;;10.23;;
20846;SDS011;10584;50.854;12.902;2022-09-13T05:18:28;22.13;;;10.30;;
20846;SDS011;10584;50.854;12.902;2022-09-13T05:23:33;17.23;;;10.53;;
20846;SDS011;10584;50.854;12.902;2022-09-13T05:28:36;20.83;;;11.23;;
20846;SDS011;10584;50.854;12.902;2022-09-13T05:33:39;19.07;;;11.17;;
20846;SDS011;10584;50.854;12.902;2022-09-13T05:38:42;15.90;;;10.07;;
20846;SDS011;10584;50.854;12.902;2022-09-13T05:43:45;19.93;;;11.23;;
20846;SDS011;10584;50.854;12.902;2022-09-13T05:48:48;17.63;;;10.20;;
20846;SDS011;10584;50.854;12.902;2022-09-13T05:53:52;17.73;;;9.43;;
20846;SDS011;10584;50.854;12.902;2022-09-13T05:58:56;13.73;;;9.10;;
20846;SDS011;10584;50.854;12.902;2022-09-13T06:03:59;17.17;;;9.83;;
20846;SDS011;10584;50.854;12.902;2022-09-13T06:09:03;15.23;;;9.30;;
20846;SDS011;10584;50.854;12.902;2022-09-13T06:14:09;13.73;;;8.30;;
20846;SDS011;10584;50.854;12.902;2022-09-13T06:19:12;14.47;;;7.63;;
20846;SDS011;10584;50.854;12.902;2022-09-13T06:24:15;11.43;;;7.47;;
20846;SDS011;10584;50.854;12.902;2022-09-13T06:29:17;12.20;;;7.97;;
20846;SDS011;10584;50.854;12.902;2022-09-13T06:34:21;11.70;;;7.43;;
20846;SDS011;10584;50.854;12.902;2022-09-13T06:39:28;11.87;;;7.30;;
20846;SDS011;10584;50.854;12.902;2022-09-13T06:44:32;12.20;;;7.33;;
20846;SDS011;10584;50.854;12.902;2022-09-13T06:49:35;12.43;;;6.90;;
20846;SDS011;10584;50.854;12.902;2022-09-13T06:54:38;11.97;;;6.93;;
20846;SDS011;10584;50.854;12.902;2022-09-13T06:59:42;10.17;;;6.30;;
20846;SDS011;10584;50.854;12.902;2022-09-13T07:04:45;10.40;;;7.30;;
20846;SDS011;10584;50.854;12.902;2022-09-13T07:09:48;13.53;;;6.80;;
20846;SDS011;10584;50.854;12.902;2022-09-13T07:14:51;10.80;;;6.40;;
20846;SDS011;10584;50.854;12.902;2022-09-13T07:19:54;10.13;;;6.30;;
20846;SDS011;10584;50.854;12.902;2022-09-13T07:24:57;11.27;;;7.00;;
20846;SDS011;10584;50.854;12.902;2022-09-13T07:30:03;8.47;;;6.30;;
20846;SDS011;10584;50.854;12.902;2022-09-13T07:35:06;9.40;;;5.87;;
20846;SDS011;10584;50.854;12.902;2022-09-13T07:40:09;12.03;;;6.20;;
20846;SDS011;10584;50.854;12.902;2022-09-13T07:45:13;9.00;;;6.07;;
20846;SDS011;10584;50.854;12.902;2022-09-13T07:50:16;9.20;;;6.30;;
20846;SDS011;10584;50.854;12.902;2022-09-13T07:55:19;9.30;;;5.83;;
20846;SDS011;10584;50.854;12.902;2022-09-13T08:00:22;10.67;;;6.70;;
20846;SDS011;10584;50.854;12.902;2022-09-13T08:05:25;8.23;;;6.10;;
20846;SDS011;10584;50.854;12.902;2022-09-13T08:10:28;10.53;;;6.57;;
20846;SDS011;10584;50.854;12.902;2022-09-13T08:15:31;13.23;;;6.57;;
20846;SDS011;10584;50.854;12.902;2022-09-13T08:20:38;10.43;;;6.50;;
20846;SDS011;10584;50.854;12.902;2022-09-13T08:25:41;9.70;;;6.63;;
20846;SDS011;10584;50.854;12.902;2022-09-13T08:30:44;9.63;;;6.07;;
20846;SDS011;10584;50.854;12.902;2022-09-13T08:35:50;9.60;;;6.30;;
20846;SDS011;10584;50.854;12.902;2022-09-13T08:40:58;10.83;;;6.67;;
20846;SDS011;10584;50.854;12.902;2022-09-13T08:51:34;12.83;;;6.87;;
20846;SDS011;10584;50.854;12.902;2022-09-13T09:18:40;10.03;;;6.30;;
20846;SDS011;10584;50.854;12.902;2022-09-13T09:29:16;7.70;;;5.27;;
20846;SDS011;10584;50.854;12.902;2022-09-13T09:39:29;8.70;;;5.50;;
20846;SDS011;10584;50.854;12.902;2022-09-13T09:44:39;7.10;;;4.73;;
20846;SDS011;10584;50.854;12.902;2022-09-13T09:49:49;6.17;;;4.27;;
20846;SDS011;10584;50.854;12.902;2022-09-13T10:00:27;6.10;;;3.93;;
20846;SDS011;10584;50.854;12.902;2022-09-13T10:05:34;5.93;;;3.60;;
20846;SDS011;10584;50.854;12.902;2022-09-13T10:15:51;5.67;;;3.90;;
20846;SDS011;10584;50.854;12.902;2022-09-13T10:26:19;5.03;;;3.77;;
20846;SDS011;10584;50.854;12.902;2022-09-13T10:31:29;4.37;;;3.60;;
20846;SDS011;10584;50.854;12.902;2022-09-13T10:36:36;4.77;;;3.43;;
20846;SDS011;10584;50.854;12.902;2022-09-13T10:42:04;5.00;;;3.97;;
20846;SDS011;10584;50.854;12.902;2022-09-13T10:47:12;4.97;;;3.57;;
20846;SDS011;10584;50.854;12.902;2022-09-13T10:52:44;6.43;;;4.07;;
20846;SDS011;10584;50.854;12.902;2022-09-13T10:57:49;7.30;;;4.30;;
20846;SDS011;10584;50.854;12.902;2022-09-13T11:19:24;4.93;;;3.77;;
20846;SDS011;10584;50.854;12.902;2022-09-13T11:30:23;5.37;;;3.17;;
20846;SDS011;10584;50.854;12.902;2022-09-13T11:46:26;5.30;;;2.50;;
20846;SDS011;10584;50.854;12.902;2022-09-13T11:57:05;3.73;;;2.20;;
20846;SDS011;10584;50.854;12.902;2022-09-13T12:13:15;5.87;;;2.40;;
20846;SDS011;10584;50.854;12.902;2022-09-13T12:18:43;3.93;;;2.40;;
20846;SDS011;10584;50.854;12.902;2022-09-13T12:35:00;4.60;;;2.40;;
20846;SDS011;10584;50.854;12.902;2022-09-13T13:02:18;4.93;;;2.87;;
20846;SDS011;10584;50.854;12.902;2022-09-13T13:07:28;4.37;;;2.90;;
20846;SDS011;10584;50.854;12.902;2022-09-13T13:12:35;5.87;;;2.80;;
20846;SDS011;10584;50.854;12.902;2022-09-13T13:17:41;6.67;;;3.10;;
20846;SDS011;10584;50.854;12.902;2022-09-13T13:22:49;3.43;;;2.67;;
20846;SDS011;10584;50.854;12.902;2022-09-13T13:27:52;4.83;;;2.90;;
20846;SDS011;10584;50.854;12.902;2022-09-13T13:38:51;3.63;;;2.90;;
20846;SDS011;10584;50.854;12.902;2022-09-13T13:43:54;6.13;;;3.10;;
20846;SDS011;10584;50.854;12.902;2022-09-13T14:05:12;3.67;;;2.50;;
20846;SDS011;10584;50.854;12.902;2022-09-13T14:21:26;3.13;;;2.40;;
20846;SDS011;10584;50.854;12.902;2022-09-13T14:26:30;4.80;;;2.40;;
20846;SDS011;10584;50.854;12.902;2022-09-13T14:31:34;3.03;;;2.20;;
20846;SDS011;10584;50.854;12.902;2022-09-13T14:36:37;3.10;;;2.30;;
20846;SDS011;10584;50.854;12.902;2022-09-13T14:42:01;4.50;;;2.30;;
20846;SDS011;10584;50.854;12.902;2022-09-13T14:52:35;4.40;;;2.27;;
20846;SDS011;10584;50.854;12.902;2022-09-13T14:57:48;3.00;;;2.40;;
20846;SDS011;10584;50.854;12.902;2022-09-13T15:03:00;2.90;;;2.50;;
20846;SDS011;10584;50.854;12.902;2022-09-13T15:13:35;2.80;;;2.50;;
20846;SDS011;10584;50.854;12.902;2022-09-13T15:18:43;3.67;;;2.70;;
20846;SDS011;10584;50.854;12.902;2022-09-13T15:23:49;2.93;;;2.40;;
20846;SDS011;10584;50.854;12.902;2022-09-13T15:28:54;3.00;;;2.60;;
20846;SDS011;10584;50.854;12.902;2022-09-13T15:39:16;3.97;;;2.80;;
20846;SDS011;10584;50.854;12.902;2022-09-13T15:44:20;8.77;;;2.80;;
20846;SDS011;10584;50.854;12.902;2022-09-13T15:49:25;3.70;;;2.60;;
20846;SDS011;10584;50.854;12.902;2022-09-13T15:54:34;4.07;;;2.70;;
20846;SDS011;10584;50.854;12.902;2022-09-13T15:59:39;2.70;;;2.30;;
20846;SDS011;10584;50.854;12.902;2022-09-13T16:04:42;3.50;;;2.70;;
20846;SDS011;10584;50.854;12.902;2022-09-13T16:09:46;3.93;;;3.03;;
20846;SDS011;10584;50.854;12.902;2022-09-13T16:14:50;4.30;;;2.73;;
20846;SDS011;10584;50.854;12.902;2022-09-13T16:19:54;3.77;;;2.80;;
20846;SDS011;10584;50.854;12.902;2022-09-13T16:24:57;3.20;;;2.87;;
20846;SDS011;10584;50.854;12.902;2022-09-13T16:30:00;5.03;;;2.90;;
20846;SDS011;10584;50.854;12.902;2022-09-13T16:35:03;4.80;;;3.03;;
20846;SDS011;10584;50.854;12.902;2022-09-13T16:40:07;5.53;;;3.00;;
20846;SDS011;10584;50.854;12.902;2022-09-13T16:45:13;4.03;;;2.77;;
20846;SDS011;10584;50.854;12.902;2022-09-13T16:50:16;5.87;;;2.80;;
20846;SDS011;10584;50.854;12.902;2022-09-13T16:55:20;3.20;;;2.70;;
20846;SDS011;10584;50.854;12.902;2022-09-13T17:00:24;4.50;;;3.00;;
20846;SDS011;10584;50.854;12.902;2022-09-13T17:05:29;5.60;;;2.83;;
20846;SDS011;10584;50.854;12.902;2022-09-13T17:10:32;4.43;;;2.70;;
20846;SDS011;10584;50.854;12.902;2022-09-13T17:15:38;3.63;;;2.67;;
20846;SDS011;10584;50.854;12.902;2022-09-13T17:20:45;4.20;;;2.80;;
20846;SDS011;10584;50.854;12.902;2022-09-13T17:25:50;3.50;;;2.87;;
20846;SDS011;10584;50.854;12.902;2022-09-13T17:30:53;5.67;;;3.37;;
20846;SDS011;10584;50.854;12.902;2022-09-13T17:36:02;5.20;;;3.07;;
20846;SDS011;10584;50.854;12.902;2022-09-13T17:41:09;5.00;;;3.27;;
20846;SDS011;10584;50.854;12.902;2022-09-13T17:46:24;4.30;;;3.40;;
20846;SDS011;10584;50.854;12.902;2022-09-13T17:51:30;4.37;;;3.43;;
20846;SDS011;10584;50.854;12.902;2022-09-13T17:56:38;5.27;;;3.40;;
20846;SDS011;10584;50.854;12.902;2022-09-13T18:01:43;6.47;;;3.70;;
20846;SDS011;10584;50.854;12.902;2022-09-13T18:06:52;7.30;;;4.00;;
20846;SDS011;10584;50.854;12.902;2022-09-13T18:11:55;7.13;;;4.90;;
20846;SDS011;10584;50.854;12.902;2022-09-13T18:16:58;4.63;;;3.83;;
20846;SDS011;10584;50.854;12.902;2022-09-13T18:22:01;5.73;;;4.47;;
20846;SDS011;10584;50.854;12.902;2022-09-13T18:27:04;8.00;;;4.77;;
20846;SDS011;10584;50.854;12.902;2022-09-13T18:32:07;5.37;;;4.30;;
20846;SDS011;10584;50.854;12.902;2022-09-13T18:37:10;6.37;;;4.37;;
20846;SDS011;10584;50.854;12.902;2022-09-13T18:42:15;7.30;;;4.17;;
20846;SDS011;10584;50.854;12.902;2022-09-13T18:47:18;8.87;;;4.40;;
20846;SDS011;10584;50.854;12.902;2022-09-13T18:52:21;7.77;;;4.60;;
20846;SDS011;10584;50.854;12.902;2022-09-13T18:57:24;8.77;;;5.27;;
20846;SDS011;10584;50.854;12.902;2022-09-13T19:02:28;8.77;;;5.27;;
20846;SDS011;10584;50.854;12.902;2022-09-13T19:07:31;8.53;;;6.27;;
20846;SDS011;10584;50.854;12.902;2022-09-13T19:12:35;11.53;;;6.67;;
20846;SDS011;10584;50.854;12.902;2022-09-13T19:17:37;14.93;;;6.43;;
20846;SDS011;10584;50.854;12.902;2022-09-13T19:22:43;15.87;;;10.00;;
20846;SDS011;10584;50.854;12.902;2022-09-13T19:27:46;14.73;;;8.90;;
20846;SDS011;10584;50.854;12.902;2022-09-13T19:32:49;9.87;;;6.20;;
20846;SDS011;10584;50.854;12.902;2022-09-13T19:37:52;7.57;;;5.43;;
20846;SDS011;10584;50.854;12.902;2022-09-13T19:42:55;10.67;;;5.60;;
20846;SDS011;10584;50.854;12.902;2022-09-13T19:47:58;9.47;;;5.93;;
20846;SDS011;10584;50.854;12.902;2022-09-13T19:53:21;10.70;;;5.80;;
20846;SDS011;10584;50.854;12.902;2022-09-13T19:58:44;6.70;;;5.10;;
20846;SDS011;10584;50.854;12.902;2022-09-13T20:03:52;8.37;;;5.80;;
20846;SDS011;10584;50.854;12.902;2022-09-13T20:08:57;7.70;;;5.73;;
20846;SDS011;10584;50.854;12.902;2022-09-13T20:14:01;8.83;;;6.10;;
20846;SDS011;10584;50.854;12.902;2022-09-13T20:19:06;9.63;;;6.37;;
20846;SDS011;10584;50.854;12.902;2022-09-13T20:24:29;8.47;;;5.50;;
20846;SDS011;10584;50.854;12.902;2022-09-13T20:29:32;8.20;;;5.80;;
20846;SDS011;10584;50.854;12.902;2022-09-13T20:34:35;8.77;;;5.67;;
20846;SDS011;10584;50.854;12.902;2022-09-13T20:39:39;8.07;;;6.03;;
20846;SDS011;10584;50.854;12.902;2022-09-13T20:44:42;8.87;;;5.60;;
20846;SDS011;10584;50.854;12.902;2022-09-13T20:49:46;8.50;;;5.93;;
20846;SDS011;10584;50.854;12.902;2022-09-13T20:54:49;9.20;;;6.07;;
20846;SDS011;10584;50.854;12.902;2022-09-13T20:59:52;9.53;;;5.90;;
20846;SDS011;10584;50.854;12.902;2022-09-13T21:04:55;8.17;;;6.03;;
20846;SDS011;10584;50.854;12.902;2022-09-13T21:09:58;12.60;;;6.37;;
20846;SDS011;10584;50.854;12.902;2022-09-13T21:15:01;14.50;;;6.30;;
20846;SDS011;10584;50.854;12.902;2022-09-13T21:20:05;10.10;;;6.60;;
20846;SDS011;10584;50.854;12.902;2022-09-13T21:25:08;11.63;;;6.70;;
20846;SDS011;10584;50.854;12.902;2022-09-13T21:30:11;9.57;;;6.90;;
20846;SDS011;10584;50.854;12.902;2022-09-13T21:35:15;10.63;;;6.43;;
20846;SDS011;10584;50.854;12.902;2022-09-13T21:40:18;12.03;;;6.80;;
20846;SDS011;10584;50.854;12.902;2022-09-13T21:45:21;8.17;;;6.30;;
20846;SDS011;10584;50.854;12.902;2022-09-13T21:50:24;10.50;;;6.30;;
20846;SDS011;10584;50.854;12.902;2022-09-13T21:55:27;9.57;;;6.37;;
20846;SDS011;10584;50.854;12.902;2022-09-13T22:00:31;9.20;;;6.63;;
20846;SDS011;10584;50.854;12.902;2022-09-13T22:12:13;9.50;;;6.70;;
20846;SDS011;10584;50.854;12.902;2022-09-13T22:17:16;9.60;;;6.67;;
20846;SDS011;10584;50.854;12.902;2022-09-13T22:22:22;10.63;;;6.83;;
20846;SDS011;10584;50.854;12.902;2022-09-13T22:27:25;9.43;;;6.63;;
20846;SDS011;10584;50.854;12.902;2022-09-13T22:32:27;10.63;;;6.60;;
20846;SDS011;10584;50.854;12.902;2022-09-13T22:37:31;11.00;;;6.57;;
20846;SDS011;10584;50.854;12.902;2022-09-13T22:42:33;10.40;;;6.83;;
20846;SDS011;10584;50.854;12.902;2022-09-13T22:47:36;8.60;;;6.57;;
20846;SDS011;10584;50.854;12.902;2022-09-13T22:52:39;11.27;;;7.40;;
20846;SDS011;10584;50.854;12.902;2022-09-13T22:57:41;13.70;;;7.23;;
20846;SDS011;10584;50.854;12.902;2022-09-13T23:02:44;11.57;;;7.23;;
20846;SDS011;10584;50.854;12.902;2022-09-13T23:07:47;12.30;;;7.37;;
20846;SDS011;10584;50.854;12.902;2022-09-13T23:12:50;9.67;;;7.17;;
20846;SDS011;10584;50.854;12.902;2022-09-13T23:17:53;13.67;;;7.03;;
20846;SDS011;10584;50.854;12.902;2022-09-13T23:22:55;14.20;;;7.37;;
20846;SDS011;10584;50.854;12.902;2022-09-13T23:27:58;12.57;;;7.30;;
20846;SDS011;10584;50.854;12.902;2022-09-13T23:33:01;12.17;;;7.13;;
20846;SDS011;10584;50.854;12.902;2022-09-13T23:38:03;12.63;;;7.17;;
20846;SDS011;10584;50.854;12.902;2022-09-13T23:43:06;10.60;;;7.50;;
20846;SDS011;10584;50.854;12.902;2022-09-13T23:48:09;12.00;;;7.40;;
20846;SDS011;10584;50.854;12.902;2022-09-13T23:53:12;11.70;;;7.73;;
20846;SDS011;10584;50.854;12.902;2022-09-13T23:58:15;11.60;;;7.43;;
